Terminal Aerodrome Forecast
Issued by NWS

Home | Current Version | Previous Version | Text Only | Print | Product List | Glossary On
Versions: 1 2 3 4 5 6 7 8 9 10 11 12 13 14 15 16 17 18 19
000
FTUS43 KMPX 232341
TAFRNH
TAF
KRNH 232341Z 2400/2424 26005KT P6SM OVC035
     FM240200 27006KT P6SM OVC030
     FM240600 28006KT P6SM BKN050 BKN150
     FM241800 28005KT P6SM OVC018=

USA.gov is the U.S. government's official web portal to all federal, state and local government web resources and services.